createdAt,value
2024-01-24T00:01:36.375Z,4.06
2024-01-24T00:04:03.270Z,4.15
2024-01-24T00:06:29.985Z,4.30
2024-01-24T00:08:56.696Z,4.56
2024-01-24T00:11:23.401Z,4.53
2024-01-24T00:13:49.998Z,4.56
2024-01-24T00:16:16.655Z,4.57
2024-01-24T00:18:43.341Z,4.57
2024-01-24T00:21:09.910Z,4.56
2024-01-24T00:23:36.525Z,4.56
2024-01-24T00:26:03.106Z,4.48
2024-01-24T00:28:29.829Z,4.41
2024-01-24T00:30:56.722Z,4.43
2024-01-24T00:33:25.395Z,4.36
2024-01-24T00:35:52.014Z,4.30
2024-01-24T00:38:18.573Z,4.22
2024-01-24T00:40:45.239Z,4.15
2024-01-24T00:43:11.984Z,4.01
2024-01-24T00:45:38.601Z,3.88
2024-01-24T00:48:05.758Z,3.85
2024-01-24T00:50:32.401Z,3.71
2024-01-24T00:53:15.056Z,3.67
2024-01-24T00:55:41.640Z,3.58
2024-01-24T00:58:08.271Z,3.52
2024-01-24T01:00:34.916Z,3.39
2024-01-24T01:03:01.587Z,3.44
2024-01-24T01:05:28.192Z,3.39
2024-01-24T01:07:54.784Z,3.42
2024-01-24T01:10:21.424Z,3.48
2024-01-24T01:12:48.130Z,3.50
2024-01-24T01:15:14.837Z,3.52
2024-01-24T01:17:41.668Z,3.69
2024-01-24T01:20:08.407Z,3.72
2024-01-24T01:22:34.983Z,3.73
2024-01-24T01:25:01.738Z,3.84
2024-01-24T01:27:28.405Z,3.89
2024-01-24T01:29:54.997Z,3.97
2024-01-24T01:32:21.631Z,4.05
2024-01-24T01:34:48.269Z,4.06
2024-01-24T01:37:14.859Z,4.08
2024-01-24T01:39:41.610Z,4.22
2024-01-24T01:42:08.384Z,4.24
2024-01-24T01:44:47.374Z,4.14
2024-01-24T01:47:18.030Z,4.02
2024-01-24T01:49:46.358Z,3.94
2024-01-24T01:52:13.837Z,3.91
2024-01-24T01:54:43.114Z,3.97
2024-01-24T01:57:10.335Z,3.97
2024-01-24T01:59:37.701Z,3.94
2024-01-24T02:02:04.887Z,3.93
2024-01-24T02:04:31.857Z,4.07
2024-01-24T02:06:58.946Z,4.11
2024-01-24T02:09:26.041Z,4.21
2024-01-24T02:11:52.657Z,4.20
2024-01-24T02:14:19.339Z,4.19
2024-01-24T02:16:46.033Z,4.22
2024-01-24T02:19:12.673Z,4.14
2024-01-24T02:21:39.326Z,4.21
2024-01-24T02:24:12.809Z,4.12
2024-01-24T02:26:40.096Z,4.00
2024-01-24T02:29:07.007Z,4.05
2024-01-24T02:31:33.581Z,4.03
2024-01-24T02:34:00.289Z,3.98
2024-01-24T02:36:27.090Z,3.93
2024-01-24T02:38:55.605Z,3.84
2024-01-24T02:41:23.570Z,3.76
2024-01-24T02:43:50.124Z,3.65
2024-01-24T02:46:16.784Z,3.70
2024-01-24T02:48:43.460Z,3.73
2024-01-24T02:51:10.180Z,3.78
2024-01-24T02:53:36.792Z,3.82
2024-01-24T02:56:03.556Z,3.87
2024-01-24T02:58:30.232Z,3.82
2024-01-24T03:00:56.934Z,3.79
2024-01-24T03:03:23.553Z,3.83
2024-01-24T03:05:50.235Z,3.83
2024-01-24T03:08:16.791Z,3.77
2024-01-24T03:10:43.349Z,3.72
2024-01-24T03:13:10.046Z,3.59
2024-01-24T03:15:36.734Z,3.50
2024-01-24T03:18:03.669Z,3.38
2024-01-24T03:20:30.468Z,3.31
2024-01-24T03:22:57.042Z,3.21
2024-01-24T03:25:23.606Z,3.17
2024-01-24T03:27:50.232Z,3.06
2024-01-24T03:30:17.056Z,2.85
2024-01-24T03:32:43.780Z,2.72
2024-01-24T03:35:10.476Z,2.48
2024-01-24T03:37:37.191Z,2.40
2024-01-24T03:40:03.979Z,2.34
2024-01-24T03:42:32.752Z,2.30
2024-01-24T03:44:59.364Z,2.08
2024-01-24T03:47:26.752Z,2.06
2024-01-24T03:49:53.440Z,2.10
2024-01-24T03:52:20.127Z,2.12
2024-01-24T03:54:46.734Z,2.08
2024-01-24T03:57:13.359Z,2.04
2024-01-24T03:59:40.029Z,2.04
2024-01-24T04:02:07.936Z,2.04
2024-01-24T04:04:35.695Z,1.72
2024-01-24T04:07:02.598Z,1.58
2024-01-24T04:09:29.270Z,1.55
2024-01-24T04:11:55.926Z,1.61
2024-01-24T04:14:22.607Z,1.66
2024-01-24T04:16:49.187Z,1.73
2024-01-24T04:19:15.927Z,1.73
2024-01-24T04:21:43.563Z,1.83
2024-01-24T04:24:10.164Z,1.82
2024-01-24T04:26:36.822Z,1.84
2024-01-24T04:29:03.479Z,1.90
2024-01-24T04:31:30.396Z,1.76
2024-01-24T04:33:57.105Z,1.83
2024-01-24T04:36:23.812Z,1.82
2024-01-24T04:38:50.446Z,1.69
2024-01-24T04:41:17.158Z,1.63
2024-01-24T04:43:43.902Z,1.53
2024-01-24T04:46:14.541Z,1.51
2024-01-24T04:48:42.761Z,1.37
2024-01-24T04:51:09.390Z,1.32
2024-01-24T04:53:36.672Z,1.27
2024-01-24T04:56:03.941Z,1.22
2024-01-24T04:58:30.578Z,1.22
2024-01-24T05:00:57.364Z,1.17
2024-01-24T05:03:24.648Z,1.08
2024-01-24T05:05:58.225Z,1.18
2024-01-24T05:08:28.078Z,0.94
2024-01-24T05:10:54.683Z,0.89
2024-01-24T05:13:21.252Z,0.75
2024-01-24T05:15:47.920Z,0.67
2024-01-24T05:18:14.620Z,0.69
2024-01-24T05:20:41.309Z,0.85
2024-01-24T05:23:07.860Z,0.85
2024-01-24T05:25:34.850Z,0.89
2024-01-24T05:28:03.014Z,0.91
2024-01-24T05:30:35.392Z,0.84
2024-01-24T05:33:03.492Z,0.68
2024-01-24T05:35:30.158Z,0.68
2024-01-24T05:37:57.475Z,0.77
2024-01-24T05:40:24.046Z,0.82
2024-01-24T05:42:53.182Z,0.71
2024-01-24T05:45:20.676Z,0.59
2024-01-24T05:47:47.426Z,0.48
2024-01-24T05:50:14.871Z,0.56
2024-01-24T05:52:45.094Z,0.60
2024-01-24T05:55:14.464Z,0.55
2024-01-24T05:57:42.534Z,0.46
2024-01-24T06:00:11.549Z,0.36
2024-01-24T06:02:38.382Z,0.38
2024-01-24T06:05:05.628Z,0.46
2024-01-24T06:07:32.923Z,0.27
2024-01-24T06:09:59.851Z,0.19
2024-01-24T06:12:26.642Z,0.17
2024-01-24T06:14:53.612Z,0.27
2024-01-24T06:17:20.204Z,0.40
2024-01-24T06:19:46.791Z,0.38
2024-01-24T06:22:13.592Z,0.31
2024-01-24T06:24:40.209Z,0.31
2024-01-24T06:27:06.897Z,0.22
2024-01-24T06:30:15.785Z,0.28
2024-01-24T06:32:20.025Z,0.18
2024-01-24T06:34:46.699Z,0.10
2024-01-24T06:37:13.388Z,0.09
2024-01-24T06:39:40.056Z,0.12
2024-01-24T06:42:06.817Z,0.24
2024-01-24T06:44:33.427Z,0.38
2024-01-24T06:47:00.071Z,0.50
2024-01-24T06:49:26.956Z,0.61
2024-01-24T06:51:53.654Z,0.61
2024-01-24T06:54:20.338Z,0.60
2024-01-24T06:56:46.972Z,0.70
2024-01-24T06:59:13.604Z,0.74
2024-01-24T07:01:40.358Z,0.62
2024-01-24T07:04:07.135Z,0.66
2024-01-24T07:06:33.835Z,0.62
2024-01-24T07:09:00.474Z,0.65
2024-01-24T07:11:27.118Z,0.82
2024-01-24T07:13:53.721Z,0.89
2024-01-24T07:16:20.337Z,1.00
2024-01-24T07:18:47.138Z,1.05
2024-01-24T07:21:15.181Z,1.22
2024-01-24T07:23:41.733Z,1.26
2024-01-24T07:26:08.345Z,1.27
2024-01-24T07:28:34.964Z,1.30
2024-01-24T07:31:01.644Z,1.36
2024-01-24T07:33:28.384Z,1.52
2024-01-24T07:35:55.437Z,1.55
2024-01-24T07:38:21.981Z,1.65
2024-01-24T07:40:48.582Z,1.80
2024-01-24T07:43:15.220Z,2.04
2024-01-24T07:45:42.927Z,2.18
2024-01-24T07:48:09.669Z,2.28
2024-01-24T07:50:36.313Z,2.50
2024-01-24T07:53:02.951Z,2.67
2024-01-24T07:55:36.918Z,2.82
2024-01-24T07:58:14.638Z,3.03
2024-01-24T08:00:42.175Z,3.15
2024-01-24T08:03:08.885Z,3.27
2024-01-24T08:05:35.666Z,3.44
2024-01-24T08:08:04.248Z,3.64
2024-01-24T08:10:30.878Z,3.76
2024-01-24T08:12:58.036Z,3.94
2024-01-24T08:15:24.684Z,4.14
2024-01-24T08:17:51.322Z,4.30
2024-01-24T08:20:17.958Z,4.54
2024-01-24T08:22:44.487Z,4.69
2024-01-24T08:25:11.063Z,4.94
2024-01-24T08:27:37.773Z,5.13
2024-01-24T08:30:05.106Z,5.27
2024-01-24T08:32:31.737Z,5.43
2024-01-24T08:34:58.603Z,5.64
2024-01-24T08:37:25.171Z,5.78
2024-01-24T08:39:51.919Z,5.95
2024-01-24T08:42:18.621Z,6.00
2024-01-24T08:44:45.179Z,6.10
2024-01-24T08:47:11.714Z,6.29
2024-01-24T08:49:38.379Z,6.50
2024-01-24T08:52:05.460Z,6.55
2024-01-24T08:54:32.227Z,6.58
2024-01-24T08:56:58.973Z,6.60
2024-01-24T08:59:25.886Z,6.81
2024-01-24T09:01:52.560Z,7.02
2024-01-24T09:04:19.330Z,7.17
2024-01-24T09:06:46.072Z,7.25
2024-01-24T09:09:13.304Z,7.09
2024-01-24T09:11:46.200Z,7.15
2024-01-24T09:14:21.243Z,7.18
2024-01-24T09:16:48.063Z,7.08
2024-01-24T09:19:14.751Z,6.97
2024-01-24T09:21:41.602Z,6.96
2024-01-24T09:24:08.538Z,6.89
2024-01-24T09:26:36.145Z,6.89
2024-01-24T09:29:02.913Z,6.84
2024-01-24T09:31:30.397Z,6.87
2024-01-24T09:33:57.204Z,6.85
2024-01-24T09:36:23.923Z,6.87
2024-01-24T09:38:50.803Z,6.94
2024-01-24T09:41:18.414Z,7.01
2024-01-24T09:43:46.937Z,7.01
2024-01-24T09:46:15.699Z,6.99
2024-01-24T09:48:45.085Z,7.03
2024-01-24T09:51:12.496Z,7.01
2024-01-24T09:53:45.830Z,7.03
2024-01-24T09:56:13.979Z,7.16
2024-01-24T09:58:40.642Z,7.23
2024-01-24T10:01:12.419Z,7.29
2024-01-24T10:03:40.046Z,7.27
2024-01-24T10:06:09.789Z,7.21
2024-01-24T10:08:36.513Z,7.35
2024-01-24T10:11:03.141Z,7.36
2024-01-24T10:13:31.370Z,7.37
2024-01-24T10:15:59.530Z,7.44
2024-01-24T10:18:26.633Z,7.46
2024-01-24T10:20:55.101Z,7.46
2024-01-24T10:23:22.532Z,7.43
2024-01-24T10:25:49.757Z,7.48
2024-01-24T10:28:16.520Z,7.55
2024-01-24T10:30:43.832Z,7.65
2024-01-24T10:33:15.766Z,7.69
2024-01-24T10:35:43.864Z,7.73
2024-01-24T10:38:10.953Z,7.76
2024-01-24T10:40:41.604Z,7.83
2024-01-24T10:43:13.823Z,7.85
2024-01-24T10:45:45.715Z,7.99
2024-01-24T10:48:12.855Z,7.98
2024-01-24T10:50:40.006Z,7.96
2024-01-24T10:53:09.432Z,7.90
2024-01-24T10:55:37.960Z,7.83
2024-01-24T10:58:06.069Z,7.92
2024-01-24T11:00:35.000Z,7.99
2024-01-24T11:03:01.921Z,8.00
2024-01-24T11:05:41.044Z,7.98
2024-01-24T11:08:40.176Z,8.13
2024-01-24T11:11:13.674Z,8.11
2024-01-24T11:13:40.754Z,8.20
2024-01-24T11:16:29.984Z,8.29
2024-01-24T11:19:00.875Z,8.27
2024-01-24T11:21:33.491Z,8.24
2024-01-24T11:24:00.444Z,8.27
2024-01-24T11:26:27.085Z,8.32
2024-01-24T11:29:05.971Z,8.25
2024-01-24T11:31:42.853Z,8.32
2024-01-24T11:34:11.643Z,8.41
2024-01-24T11:36:55.164Z,8.45
2024-01-24T11:39:42.193Z,8.43
2024-01-24T11:42:27.258Z,8.46
2024-01-24T11:44:54.285Z,8.48
2024-01-24T11:47:22.372Z,8.45
2024-01-24T11:49:50.121Z,8.43
2024-01-24T11:52:21.604Z,8.42
2024-01-24T11:54:52.261Z,8.37
2024-01-24T11:57:19.178Z,8.52
2024-01-24T11:59:46.043Z,8.56
2024-01-24T12:02:12.786Z,8.56
2024-01-24T12:04:39.595Z,8.61
2024-01-24T12:07:08.246Z,8.62
2024-01-24T12:09:34.923Z,8.70
2024-01-24T12:12:01.568Z,8.74
2024-01-24T12:14:28.471Z,8.72
2024-01-24T12:16:55.692Z,8.66
2024-01-24T12:19:22.494Z,8.62
2024-01-24T12:21:49.613Z,8.67
2024-01-24T12:24:17.769Z,8.66
2024-01-24T12:26:44.474Z,8.67
2024-01-24T12:29:11.783Z,8.77
2024-01-24T12:31:38.518Z,8.84
2024-01-24T12:34:08.343Z,8.92
2024-01-24T12:36:35.082Z,8.98
2024-01-24T12:39:01.810Z,9.01
2024-01-24T12:41:28.816Z,9.01
2024-01-24T12:43:57.007Z,9.01
2024-01-24T12:46:24.017Z,9.11
2024-01-24T12:48:50.760Z,9.10
2024-01-24T12:51:17.401Z,9.10
2024-01-24T12:53:44.122Z,9.06
2024-01-24T12:56:10.793Z,9.07
2024-01-24T12:58:37.436Z,9.06
2024-01-24T13:01:04.230Z,9.09
2024-01-24T13:03:32.136Z,9.13
2024-01-24T13:05:59.717Z,9.12
2024-01-24T13:08:26.805Z,9.09
2024-01-24T13:10:53.789Z,9.09
2024-01-24T13:13:20.689Z,9.15
2024-01-24T13:15:47.574Z,9.15
2024-01-24T13:18:14.237Z,9.14
2024-01-24T13:20:40.836Z,9.10
2024-01-24T13:23:07.552Z,9.13
2024-01-24T13:25:34.182Z,9.12
2024-01-24T13:28:00.992Z,9.09
2024-01-24T13:30:28.762Z,9.06
2024-01-24T13:32:55.928Z,9.02
2024-01-24T13:35:22.726Z,8.94
2024-01-24T13:37:49.785Z,8.86
2024-01-24T13:40:17.542Z,8.81
2024-01-24T13:42:44.457Z,8.78
2024-01-24T13:45:11.368Z,8.75
2024-01-24T13:47:38.199Z,8.67
2024-01-24T13:50:06.196Z,8.68
2024-01-24T13:52:32.955Z,8.64
2024-01-24T13:54:59.782Z,8.58
2024-01-24T13:57:26.625Z,8.57
2024-01-24T13:59:53.301Z,8.52
2024-01-24T14:02:20.112Z,8.49
2024-01-24T14:04:46.929Z,8.45
2024-01-24T14:07:13.624Z,8.44
2024-01-24T14:09:40.872Z,8.41
2024-01-24T14:12:07.794Z,8.37
2024-01-24T14:14:34.758Z,8.37
2024-01-24T14:17:01.736Z,8.36
2024-01-24T14:19:28.607Z,8.34
2024-01-24T14:21:55.583Z,8.28
2024-01-24T14:24:22.276Z,8.26
2024-01-24T14:26:49.154Z,8.20
2024-01-24T14:29:16.285Z,8.20
2024-01-24T14:31:42.794Z,8.13
2024-01-24T14:34:09.649Z,8.08
2024-01-24T14:36:36.632Z,8.06
2024-01-24T14:39:03.396Z,8.06
2024-01-24T14:41:29.944Z,8.04
2024-01-24T14:43:56.862Z,7.98
2024-01-24T14:46:23.519Z,7.96
2024-01-24T14:48:50.291Z,7.89
2024-01-24T14:51:16.994Z,7.88
2024-01-24T14:53:44.734Z,7.85
2024-01-24T14:56:11.312Z,7.85
2024-01-24T14:58:37.914Z,7.81
2024-01-24T15:01:05.799Z,7.77
2024-01-24T15:03:32.503Z,7.75
2024-01-24T15:05:59.068Z,7.72
2024-01-24T15:08:26.024Z,7.65
2024-01-24T15:10:52.868Z,7.58
2024-01-24T15:13:19.591Z,7.57
2024-01-24T15:15:46.220Z,7.52
2024-01-24T15:18:12.940Z,7.49
2024-01-24T15:20:45.353Z,7.45
2024-01-24T15:23:16.787Z,7.39
2024-01-24T15:25:43.387Z,7.37
2024-01-24T15:28:10.246Z,7.34
2024-01-24T15:30:36.988Z,7.27
2024-01-24T15:33:03.867Z,7.26
2024-01-24T15:35:30.559Z,7.24
2024-01-24T15:37:57.402Z,7.23
2024-01-24T15:40:24.054Z,7.23
2024-01-24T15:42:50.727Z,7.26
2024-01-24T15:45:18.063Z,7.23
2024-01-24T15:47:44.984Z,7.21
2024-01-24T15:50:11.930Z,7.16
2024-01-24T15:52:38.696Z,7.11
2024-01-24T15:55:05.758Z,7.08
2024-01-24T15:57:32.463Z,7.07
2024-01-24T15:59:59.248Z,7.06
2024-01-24T16:02:25.865Z,7.06
2024-01-24T16:04:53.359Z,7.01
2024-01-24T16:07:20.115Z,6.96
2024-01-24T16:09:46.935Z,6.89
2024-01-24T16:12:13.675Z,6.84
2024-01-24T16:14:40.253Z,6.82
2024-01-24T16:17:07.763Z,6.78
2024-01-24T16:19:36.042Z,6.70
2024-01-24T16:22:02.696Z,6.64
2024-01-24T16:24:29.368Z,6.57
2024-01-24T16:26:56.007Z,6.54
2024-01-24T16:29:22.697Z,6.53
2024-01-24T16:31:49.316Z,6.55
2024-01-24T16:34:17.393Z,6.51
2024-01-24T16:36:44.214Z,6.55
2024-01-24T16:39:10.844Z,6.52
2024-01-24T16:41:37.586Z,6.51
2024-01-24T16:44:04.335Z,6.46
2024-01-24T16:46:30.940Z,6.46
2024-01-24T16:48:57.689Z,6.46
2024-01-24T16:51:25.418Z,6.48
2024-01-24T16:53:52.058Z,6.48
2024-01-24T16:56:18.699Z,6.50
2024-01-24T16:58:45.330Z,6.56
2024-01-24T17:01:12.027Z,6.54
2024-01-24T17:03:38.807Z,6.53
2024-01-24T17:06:05.893Z,6.46
2024-01-24T17:08:32.576Z,6.52
2024-01-24T17:10:59.270Z,6.50
2024-01-24T17:13:25.895Z,6.48
2024-01-24T17:15:52.552Z,6.48
2024-01-24T17:18:20.119Z,6.50
2024-01-24T17:20:46.832Z,6.46
2024-01-24T17:23:13.472Z,6.43
2024-01-24T17:25:40.308Z,6.39
2024-01-24T17:28:07.016Z,6.41
2024-01-24T17:30:33.732Z,6.40
2024-01-24T17:33:00.613Z,6.40
2024-01-24T17:35:27.405Z,6.42
2024-01-24T17:37:54.264Z,6.36
2024-01-24T17:40:21.008Z,6.28
2024-01-24T17:42:47.938Z,6.23
2024-01-24T17:45:14.885Z,6.20
2024-01-24T17:47:41.702Z,6.22
2024-01-24T17:50:08.915Z,6.24
2024-01-24T17:52:35.840Z,6.28
2024-01-24T17:55:02.587Z,6.23
2024-01-24T17:57:29.440Z,6.21
2024-01-24T17:59:56.429Z,6.20
2024-01-24T18:02:23.130Z,6.20
2024-01-24T18:04:50.031Z,6.20
2024-01-24T18:07:16.887Z,6.26
2024-01-24T18:09:43.881Z,6.24
2024-01-24T18:12:10.594Z,6.23
2024-01-24T18:14:37.276Z,6.17
2024-01-24T18:17:04.040Z,6.14
2024-01-24T18:19:30.715Z,6.12
2024-01-24T18:21:57.841Z,6.06
2024-01-24T18:24:24.576Z,6.07
2024-01-24T18:26:51.369Z,6.06
2024-01-24T18:29:19.965Z,5.99
2024-01-24T18:31:46.739Z,5.97
2024-01-24T18:34:13.657Z,6.00
2024-01-24T18:36:40.511Z,5.96
2024-01-24T18:39:07.114Z,5.91
2024-01-24T18:41:33.854Z,5.82
2024-01-24T18:44:00.483Z,5.77
2024-01-24T18:46:27.156Z,5.74
2024-01-24T18:48:54.404Z,5.73
2024-01-24T18:51:21.284Z,5.73
2024-01-24T18:53:47.908Z,5.73
2024-01-24T18:56:14.593Z,5.72
2024-01-24T18:58:42.008Z,5.69
2024-01-24T19:01:08.778Z,5.64
2024-01-24T19:03:35.808Z,5.64
2024-01-24T19:06:02.597Z,5.63
2024-01-24T19:08:29.320Z,5.63
2024-01-24T19:10:56.011Z,5.65
2024-01-24T19:13:22.664Z,5.66
2024-01-24T19:15:49.454Z,5.63
2024-01-24T19:18:22.684Z,5.63
2024-01-24T19:20:51.512Z,5.64
2024-01-24T19:23:18.117Z,5.63
2024-01-24T19:25:44.738Z,5.62
2024-01-24T19:28:11.580Z,5.60
2024-01-24T19:30:38.309Z,5.63
2024-01-24T19:33:05.343Z,5.67
2024-01-24T19:35:31.982Z,5.64
2024-01-24T19:37:58.573Z,5.62
2024-01-24T19:40:25.366Z,5.61
2024-01-24T19:42:53.197Z,5.57
2024-01-24T19:45:19.850Z,5.59
2024-01-24T19:47:46.502Z,5.59
2024-01-24T19:50:13.204Z,5.67
2024-01-24T19:52:40.172Z,5.60
2024-01-24T19:55:08.195Z,5.57
2024-01-24T19:57:35.239Z,5.50
2024-01-24T20:00:01.922Z,5.48
2024-01-24T20:02:28.683Z,5.52
2024-01-24T20:04:55.403Z,5.52
2024-01-24T20:07:22.203Z,5.56
2024-01-24T20:09:49.026Z,5.60
2024-01-24T20:12:16.592Z,5.62
2024-01-24T20:14:43.304Z,5.64
2024-01-24T20:17:09.888Z,5.69
2024-01-24T20:19:36.574Z,5.70
2024-01-24T20:22:03.268Z,5.68
2024-01-24T20:24:29.924Z,5.69
2024-01-24T20:26:56.764Z,5.69
2024-01-24T20:29:23.422Z,5.73
2024-01-24T20:31:50.039Z,5.79
2024-01-24T20:34:16.968Z,5.80
2024-01-24T20:36:43.652Z,5.84
2024-01-24T20:39:10.507Z,5.83
2024-01-24T20:41:37.135Z,5.85
2024-01-24T20:44:03.703Z,5.82
2024-01-24T20:46:30.297Z,5.77
2024-01-24T20:48:57.127Z,5.82
2024-01-24T20:51:23.926Z,5.93
2024-01-24T20:53:50.578Z,6.04
2024-01-24T20:56:17.169Z,6.09
2024-01-24T20:58:43.778Z,6.10
2024-01-24T21:01:10.450Z,6.09
2024-01-24T21:03:37.662Z,6.07
2024-01-24T21:06:04.728Z,6.06
2024-01-24T21:08:31.383Z,6.05
2024-01-24T21:11:03.134Z,6.08
2024-01-24T21:13:31.010Z,6.08
2024-01-24T21:15:57.865Z,6.08
2024-01-24T21:18:24.621Z,6.09
2024-01-24T21:20:51.507Z,6.10
2024-01-24T21:23:18.344Z,6.07
2024-01-24T21:25:45.001Z,6.11
2024-01-24T21:28:11.609Z,6.10
2024-01-24T21:30:38.299Z,6.14
2024-01-24T21:33:05.018Z,6.19
2024-01-24T21:35:31.716Z,6.23
2024-01-24T21:37:58.675Z,6.23
2024-01-24T21:40:25.367Z,6.26
2024-01-24T21:42:52.224Z,6.30
2024-01-24T21:45:18.979Z,6.27
2024-01-24T21:47:45.651Z,6.26
2024-01-24T21:50:12.560Z,6.26
2024-01-24T21:52:39.233Z,6.28
2024-01-24T21:55:07.271Z,6.24
2024-01-24T21:57:34.182Z,6.25
2024-01-24T22:00:00.917Z,6.20
2024-01-24T22:02:27.569Z,6.15
2024-01-24T22:04:54.339Z,6.10
2024-01-24T22:07:21.253Z,6.07
2024-01-24T22:09:47.995Z,5.99
2024-01-24T22:12:14.610Z,5.94
2024-01-24T22:14:41.266Z,5.95
2024-01-24T22:17:07.925Z,5.98
2024-01-24T22:19:34.589Z,5.98
2024-01-24T22:22:01.210Z,6.00
2024-01-24T22:24:27.911Z,6.04
2024-01-24T22:26:54.432Z,6.04
2024-01-24T22:29:21.138Z,6.02
2024-01-24T22:31:47.724Z,5.98
2024-01-24T22:34:14.476Z,6.01
2024-01-24T22:36:41.306Z,6.01
2024-01-24T22:39:07.893Z,5.98
2024-01-24T22:41:34.561Z,5.97
2024-01-24T22:44:01.149Z,5.94
2024-01-24T22:46:27.713Z,5.97
2024-01-24T22:48:54.488Z,5.97
2024-01-24T22:51:21.293Z,5.98
2024-01-24T22:53:47.838Z,5.98
2024-01-24T22:56:14.376Z,5.94
2024-01-24T22:58:41.000Z,5.99
2024-01-24T23:01:07.760Z,6.01
2024-01-24T23:03:34.577Z,6.07
2024-01-24T23:06:01.233Z,6.09
2024-01-24T23:08:27.769Z,6.16
2024-01-24T23:10:54.416Z,6.10
2024-01-24T23:13:21.081Z,6.09
2024-01-24T23:15:47.745Z,6.09
2024-01-24T23:18:14.450Z,6.10
2024-01-24T23:20:41.147Z,6.15
2024-01-24T23:23:07.792Z,6.14
2024-01-24T23:25:34.437Z,6.14
2024-01-24T23:28:01.200Z,6.11
2024-01-24T23:30:27.953Z,6.15
2024-01-24T23:32:54.728Z,6.17
2024-01-24T23:35:21.813Z,6.17
2024-01-24T23:37:48.700Z,6.17
2024-01-24T23:40:15.497Z,6.18
2024-01-24T23:42:42.254Z,6.26
2024-01-24T23:45:09.249Z,6.28
2024-01-24T23:47:35.839Z,6.27
2024-01-24T23:50:02.698Z,6.16
2024-01-24T23:52:29.669Z,6.12
2024-01-24T23:54:56.443Z,6.10
2024-01-24T23:57:24.963Z,6.03
2024-01-24T23:59:51.674Z,6.01
